Flight Track Log - Related Links

Times and Time Zones

All times are in EDT time to prevent confusion due to time zone crossing. See the JBU918 flight status page for this flight to view local times or setup timezone preferences in your user account.

Time Position Orientation Groundspeed Altitude Reporting Facility
EDT Latitude Longitude Course Direction KTS MPH feet Rate Location/Type
Mon 05:53:18 PM 40.6014 -73.7969 179° South 166 191 1,800  Level Boston Center
Mon 05:54:22 PM 40.5489 -73.7953 179° South 221 254 4,100 2,468 Climbing Boston Center
Mon 05:55:22 PM 40.5658 -73.7033 76° East 278 320 6,900 3,000 Climbing Boston Center
Mon 05:56:26 PM 40.6325 -73.6314 39° Northeast 305 351 10,300 1,968 Climbing Boston Center
Mon 05:57:27 PM 40.7250 -73.5325 39° Northeast 364 419 11,000 1,131 Climbing Boston Center
Mon 05:58:28 PM 40.8078 -73.4544 36° Northeast 369 425 12,600 1,934 Climbing Boston Center
Mon 05:59:28 PM 40.9069 -73.3997 23° Northeast 382 440 14,900 2,361 Climbing Boston Center
Mon 06:00:30 PM 41.0039 -73.3175 33° Northeast 421 484 17,400 2,496 Climbing Boston Center
Mon 06:01:33 PM 41.0994 -73.2119 40° Northeast 424 488 20,100 1,756 Climbing Boston Center
Mon 06:02:33 PM 41.1619 -73.0706 60° Northeast 445 512 21,000 443 Climbing Boston Center
Mon 06:03:35 PM 41.2147 -72.9200 65° Northeast 448 516 21,000  Level Boston Center
Mon 06:04:36 PM 41.2692 -72.7675 65° Northeast 455 524 21,000  Level Boston Center
Mon 06:05:37 PM 41.3217 -72.6144 65° Northeast 455 524 21,000  Level Boston Center
Mon 06:06:40 PM 41.3750 -72.4617 65° Northeast 455 524 21,000  Level Boston Center
Mon 06:07:42 PM 41.4258 -72.3136 65° Northeast 442 509 21,000  Level Boston Center
Mon 06:08:43 PM 41.4858 -72.1375 65° Northeast 438 504 21,000  Level Boston Center
Mon 06:09:43 PM 41.5364 -71.9900 65° Northeast 438 504 21,000 -645 Level Boston Center
Mon 06:10:44 PM 41.5839 -71.8483 66° East 438 504 19,700 -1,854 Descending Boston Center
Mon 06:11:46 PM 41.6378 -71.6894 66° East 423 487 17,200 -1,857 Descending Boston Center
Mon 06:12:50 PM 41.6872 -71.5411 66° East 417 480 15,800 -1,548 Descending Boston Center
Mon 06:13:50 PM 41.7347 -71.4075 64° Northeast 405 466 14,000 -1,550 Descending Boston Center
Mon 06:14:50 PM 41.8258 -71.3472 26° Northeast 375 432 12,700 -1,306 Descending Boston Center
Mon 06:15:54 PM 41.9311 -71.3047 17° North 371 427 11,300 -1,210 Descending Boston Center
Mon 06:16:54 PM 42.0222 -71.2667 17° North 343 395 10,200 -1,339 Descending Boston Center
Mon 06:17:55 PM 42.1072 -71.2283 18° North 328 377 8,600 -1,672 Descending Boston Center
Mon 06:18:56 PM 42.1975 -71.1881 18° North 321 369 6,800 -1,536 Descending Boston Center
Mon 06:20:00 PM 42.2772 -71.1517 19° North 306 352 5,400 -816 Descending Boston Center
Mon 06:21:01 PM 42.3625 -71.1244 13° North 306 352 5,100 -298 Descending Boston Center
Mon 06:22:01 PM 42.4364 -71.0867 21° North 287 330 4,800 -492 Descending Boston Center
Mon 06:23:03 PM 42.5067 -71.0506 21° North 258 297 4,100 -624 Descending Boston Center
Mon 06:24:06 PM 42.5697 -71.0139 23° Northeast 252 290 3,500 -532 Descending Boston Center
Mon 06:25:07 PM 42.5672 -70.9342 92° East 214 246 3,000 -246 Descending Boston Center
Mon 06:26:08 PM 42.5233 -70.9281 174° South 153 176 3,000 -344 Level Boston Center
Mon 06:27:09 PM 42.4828 -70.9489 201° Southwest 153 176 2,300 -787 Descending Boston Center
Mon 06:28:10 PM 42.4394 -70.9703 200° South 155 178 1,400 -720 Descending Boston Center
Mon 06:29:14 PM 42.4072 -70.9853 199° South 128 147 800 -480 Descending Boston Center
Mon 06:30:15 PM 42.3794 -70.9969 197° South 114 131 400 -393 Descending Boston Center

Login

Don't have an account? Register now (free) for customized features, flight alerts, and more!